createdAt,value
2023-05-14T00:06:02.961Z,10.60
2023-05-14T00:16:05.951Z,10.48
2023-05-14T00:26:08.493Z,10.46
2023-05-14T00:36:10.998Z,10.50
2023-05-14T00:46:14.559Z,10.40
2023-05-14T00:56:18.153Z,10.32
2023-05-14T01:06:47.128Z,10.37
2023-05-14T01:16:56.738Z,10.34
2023-05-14T01:27:26.659Z,10.42
2023-05-14T01:37:30.677Z,10.41
2023-05-14T01:47:33.326Z,10.37
2023-05-14T01:57:36.470Z,10.25
2023-05-14T02:07:39.476Z,10.31
2023-05-14T02:17:42.014Z,10.41
2023-05-14T02:27:46.662Z,10.43
2023-05-14T02:37:49.152Z,10.43
2023-05-14T02:47:51.630Z,10.29
2023-05-14T02:57:54.350Z,10.18
2023-05-14T03:07:56.801Z,10.06
2023-05-14T03:17:59.284Z,10.07
2023-05-14T03:28:01.861Z,10.01
2023-05-14T03:38:04.399Z,10.03
2023-05-14T03:48:07.087Z,10.05
2023-05-14T03:58:14.434Z,10.06
2023-05-14T04:08:17.323Z,10.10
2023-05-14T04:18:19.783Z,9.97
2023-05-14T04:28:22.310Z,10.09
2023-05-14T04:38:24.769Z,10.13
2023-05-14T04:48:27.253Z,10.16
2023-05-14T04:58:33.756Z,10.23
2023-05-14T05:08:37.571Z,10.27
2023-05-14T05:18:40.245Z,10.27
2023-05-14T05:28:42.857Z,10.26
2023-05-14T05:38:45.354Z,10.38
2023-05-14T05:48:47.818Z,10.45
2023-05-14T05:58:50.324Z,10.40
2023-05-14T06:08:52.776Z,10.44
2023-05-14T06:18:56.005Z,10.46
2023-05-14T06:28:59.236Z,10.44
2023-05-14T06:39:01.699Z,10.46
2023-05-14T06:49:04.379Z,10.43
2023-05-14T06:59:06.896Z,10.55
2023-05-14T07:09:10.702Z,10.80
2023-05-14T07:19:13.546Z,10.86
2023-05-14T07:29:16.123Z,10.75
2023-05-14T07:39:18.766Z,10.75
2023-05-14T07:49:21.295Z,10.75
2023-05-14T07:59:23.760Z,10.67
2023-05-14T08:09:26.429Z,10.69
2023-05-14T08:19:28.953Z,10.75
2023-05-14T08:29:31.527Z,10.81
2023-05-14T08:39:34.058Z,10.84
2023-05-14T08:49:42.753Z,10.91
2023-05-14T08:59:45.277Z,10.96
2023-05-14T09:09:48.086Z,11.13
2023-05-14T09:19:53.185Z,11.01
2023-05-14T09:29:56.335Z,10.95
2023-05-14T09:40:06.410Z,11.01
2023-05-14T09:50:10.026Z,11.00
2023-05-14T10:00:13.055Z,11.08
2023-05-14T10:10:19.265Z,11.13
2023-05-14T10:20:23.491Z,11.11
2023-05-14T10:30:27.214Z,11.21
2023-05-14T10:40:29.941Z,11.17
2023-05-14T10:50:32.421Z,11.07
2023-05-14T11:00:35.631Z,11.08
2023-05-14T11:10:39.468Z,11.01
2023-05-14T11:20:42.025Z,11.02
2023-05-14T11:30:46.474Z,11.01
2023-05-14T11:40:59.670Z,11.08
2023-05-14T11:51:02.222Z,11.18
2023-05-14T12:01:04.935Z,11.13
2023-05-14T12:11:09.215Z,11.08
2023-05-14T12:21:12.147Z,11.07
2023-05-14T12:31:15.589Z,11.13
2023-05-14T12:41:18.321Z,11.04
2023-05-14T12:51:21.146Z,11.18
2023-05-14T13:01:24.377Z,11.38
2023-05-14T13:11:29.659Z,11.32
2023-05-14T13:21:32.264Z,11.35
2023-05-14T13:31:35.013Z,11.37
2023-05-14T13:41:38.393Z,11.36
2023-05-14T13:51:41.026Z,11.48
2023-05-14T14:01:43.606Z,11.44
2023-05-14T14:11:46.153Z,11.27
2023-05-14T14:31:51.382Z,11.41
2023-05-14T14:41:53.954Z,11.47
2023-05-14T14:51:56.477Z,11.46
2023-05-14T15:01:59.036Z,11.50
2023-05-14T15:12:01.618Z,11.46
2023-05-14T15:22:04.565Z,11.41
2023-05-14T15:32:07.755Z,11.38
2023-05-14T15:42:10.537Z,11.48
2023-05-14T15:52:13.902Z,11.52
2023-05-14T16:02:16.356Z,11.58
2023-05-14T16:12:18.833Z,11.57
2023-05-14T16:22:21.416Z,11.58
2023-05-14T16:32:25.323Z,11.58
2023-05-14T16:42:27.925Z,11.51
2023-05-14T16:52:30.964Z,11.32
2023-05-14T17:02:33.826Z,11.41
2023-05-14T17:12:36.254Z,11.39
2023-05-14T17:22:39.027Z,11.45
2023-05-14T17:32:41.515Z,11.51
2023-05-14T17:42:45.524Z,11.43
2023-05-14T17:52:48.500Z,11.46
2023-05-14T18:02:51.126Z,11.46
2023-05-14T18:12:53.782Z,11.38
2023-05-14T18:22:56.515Z,11.37
2023-05-14T18:32:59.987Z,11.39
2023-05-14T18:43:03.031Z,11.41
2023-05-14T18:53:05.767Z,11.38
2023-05-14T19:03:08.305Z,11.39
2023-05-14T19:13:11.703Z,11.37
2023-05-14T19:23:14.229Z,11.29
2023-05-14T19:33:17.496Z,11.26
2023-05-14T19:43:20.030Z,11.29
2023-05-14T19:53:24.098Z,11.25
2023-05-14T20:03:26.978Z,11.29
2023-05-14T20:13:32.051Z,11.23
2023-05-14T20:23:34.754Z,11.33
2023-05-14T20:33:37.230Z,11.33
2023-05-14T20:43:39.764Z,11.24
2023-05-14T20:53:42.280Z,11.11
2023-05-14T21:03:44.843Z,11.21
2023-05-14T21:13:47.455Z,11.25
2023-05-14T21:23:50.132Z,11.28
2023-05-14T21:33:52.566Z,11.23
2023-05-14T21:43:55.091Z,11.20
2023-05-14T21:53:57.646Z,11.25
2023-05-14T22:04:00.106Z,11.05
2023-05-14T22:14:02.641Z,11.06
2023-05-14T22:24:05.503Z,11.17
2023-05-14T22:34:08.006Z,11.20
2023-05-14T22:44:10.459Z,11.18
2023-05-14T22:54:12.946Z,11.18
2023-05-14T23:04:15.507Z,11.16
2023-05-14T23:14:18.454Z,11.11
2023-05-14T23:24:20.919Z,10.90
2023-05-14T23:34:23.504Z,11.02
2023-05-14T23:44:25.991Z,11.03
2023-05-14T23:54:28.504Z,11.04
